ENNM/OSY METAR and TAF weather

Enter ICAO airport designator
Station Type Date Time Source
ENNM METAR 2021/04/14 19:50 UTC NOAA

ENNM 141950Z VRB03KT 9999 SCT044 03/M02 Q1030


Station Type Date Time Source
ENNM Decoded METAR 2021/04/14 19:50 UTC NOAA

Namsos Lufthavn, Norway (ENNM) 64-28N 011-35E 2M
Apr 14, 2021 - 03:50 PM EDT / 2021.04.14 1950 UTC
Wind: Variable at 3 MPH (3 KT):0
Visibility: greater than 7 mile(s):0
Sky conditions: partly cloudy
Temperature: 37 F (3 C)
Dew Point: 28 F (-2 C)
Relative Humidity: 69%
Pressure (altimeter): 30.42 in. Hg (1030 hPa)
ob: ENNM 141950Z VRB03KT 9999 SCT044 03/M02 Q1030
cycle: 20

Station Type Date Time Source
ENNM TAF UTC NOAA

Error!

Example: see airport list